Lee Center, IL (61331)

10:38 PM CDT on July 25, 2016 (GMT -0500)
Lee Co EMA Amboy Site | | Change Station

Elev 765 ft 41.71 °N, 89.32 °W | Updated 35 seconds ago

Scattered Clouds
Scattered Clouds
71.0 °F
Feels Like 71.0 °F
N
0.0
Wind Variable Wind from NW
Gusts 5.0 mph

Today
High -- | Low -- °F
--% Chance of Precip.
Yesterday
High -- | Low -- °F
Precip. -- in
Pressure 30.04 in
Visibility 10.0 miles
Clouds Scattered Clouds 5000 ft
Dew Point 68 °F
Humidity 89%
Rainfall 0.00 in
Snow Depth Not available.
5:44 AM 8:21 PM
Waning Gibbous, 59% visible
METAR KRPJ 260315Z AUTO 00000KT 10SM SCT050 22/20 A3004 RMK AO2 T02180195
Pressure 30.04 in
Visibility 10.0 miles
Clouds Scattered Clouds 5000 ft
Dew Point 68 °F
Humidity 89%
Rainfall 0.00 in
Snow Depth Not available.
5:44 AM 8:21 PM
Waning Gibbous, 59% visible
METAR KRPJ 260315Z AUTO 00000KT 10SM SCT050 22/20 A3004 RMK AO2 T02180195

10-Day Weather Forecast

Almanac

Astronomy

Jul. 25, 2016 Rise Set
Actual Time
Civil Twilight
Nautical Twilight
Astronomical Twilight
Moon
Length of Visible Light
Length of Day
Tomorrow will be .
, % of the Moon is Illuminated

Today's Extremes

State Highs State Lows

Community

WunderPhotos

Upload Photos

1,927,522 photos uploaded!

WunderBlog® & News

Nearby

Air Quality

  Air Quality AQ Index Pollutant
Not available.

Snow Depth

Station Depth Elevation

Earthquake Activity

City Distance Mag. Time & Date
Minimum magnitude displayed is 2.5.

Coastal Water Temperatures

Place Temperature

Stations

Nearby Weather Stations

Station Location Temp. Windchill Dew Point Humidity Wind Precip. Elev Updated Type
                   

Watches & Warnings

There are currently no watches in effect.